Time;durP1;ratioP1;P1;durP2;ratioP2;P2;SDS_P1;SDS_P2;PMS_P1;PMS_P2;Temp;Humidity;BMP_temperature;BMP_pressure;BME280_temperature;BME280_humidity;BME280_pressure;Samples;Min_cycle;Max_cycle;Signal;HPM_P1;HPM_P2
2022/09/19 00:01:54;;;;;;;16.40;2.78;;;;;;;7.96;99.04;101646.72;4930732;28;20040;-69
2022/09/19 00:04:30;;;;;;;12.20;2.20;;;;;;;7.95;99.12;101639.72;4930705;28;20044;-68
2022/09/19 00:06:59;;;;;;;14.60;2.95;;;;;;;7.95;98.86;101644.97;4928789;28;20115;-67
2022/09/19 00:09:31;;;;;;;11.55;2.50;;;;;;;7.95;99.00;101641.44;4932265;28;20044;-67
2022/09/19 00:12:00;;;;;;;13.93;2.70;;;;;;;7.95;99.08;101641.44;4933990;28;20052;-67
2022/09/19 00:14:33;;;;;;;16.15;2.67;;;;;;;7.96;99.01;101636.22;4933644;28;20072;-67
2022/09/19 00:17:09;;;;;;;17.65;3.22;;;;;;;7.95;98.98;101639.72;4933744;29;20047;-67
2022/09/19 00:19:38;;;;;;;16.02;2.75;;;;;;;7.96;99.13;101640.56;4931355;28;20064;-67
2022/09/19 00:22:06;;;;;;;17.45;2.90;;;;;;;7.96;99.30;101641.47;4929990;29;20047;-67
2022/09/19 00:24:45;;;;;;;18.30;3.10;;;;;;;7.96;99.22;101640.56;4932137;28;20044;-67
2022/09/19 00:27:22;;;;;;;19.23;2.75;;;;;;;7.96;99.26;101644.09;4931769;29;20044;-67
2022/09/19 00:29:52;;;;;;;13.98;2.42;;;;;;;7.95;99.27;101634.47;4928932;29;20044;-67
2022/09/19 00:32:22;;;;;;;11.50;2.72;;;;;;;7.94;99.29;101632.72;4925921;29;20512;-67
2022/09/19 00:34:52;;;;;;;17.83;2.70;;;;;;;7.97;99.07;101637.06;4932739;29;20131;-67
2022/09/19 00:37:21;;;;;;;17.20;2.63;;;;;;;7.99;98.99;101645.81;4932732;28;20495;-67
2022/09/19 00:39:48;;;;;;;15.35;2.80;;;;;;;8.01;98.92;101644.91;4931158;28;20044;-67
2022/09/19 00:42:21;;;;;;;22.15;3.55;;;;;;;8.04;98.96;101647.53;4930112;29;20045;-67
2022/09/19 00:45:02;;;;;;;14.68;2.40;;;;;;;8.03;98.75;101650.19;4932171;29;20381;-67
2022/09/19 00:47:44;;;;;;;11.77;2.40;;;;;;;8.04;99.09;101644.00;4931613;28;20490;-67
2022/09/19 00:50:27;;;;;;;17.92;2.63;;;;;;;8.05;99.06;101649.28;4928612;29;20471;-67
2022/09/19 00:53:13;;;;;;;24.75;3.05;;;;;;;8.07;98.77;101655.41;4932158;28;20147;-67
2022/09/19 00:55:41;;;;;;;16.52;2.35;;;;;;;8.05;98.84;101654.53;4932203;28;20044;-66
2022/09/19 00:58:35;;;;;;;13.63;2.47;;;;;;;8.05;98.59;101657.16;4930329;28;20119;-68
2022/09/19 01:01:02;;;;;;;21.67;2.63;;;;;;;8.05;98.47;101653.63;4933265;29;20041;-68
2022/09/19 01:03:31;;;;;;;19.88;3.13;;;;;;;8.04;98.58;101659.75;4932170;29;20417;-68
2022/09/19 01:06:23;;;;;;;19.67;2.67;;;;;;;8.03;98.69;101661.53;4932709;29;20627;-68
2022/09/19 01:09:06;;;;;;;14.75;2.45;;;;;;;8.01;98.77;101668.53;4928330;28;20103;-68
2022/09/19 01:11:58;;;;;;;12.30;2.22;;;;;;;8.00;98.69;101669.44;4929860;29;20036;-68
2022/09/19 01:14:53;;;;;;;16.95;2.10;;;;;;;8.01;98.50;101675.56;4926917;29;20052;-67
2022/09/19 01:17:46;;;;;;;15.35;2.20;;;;;;;8.04;98.05;101681.66;4928969;29;20044;-67
2022/09/19 01:20:33;;;;;;;8.20;2.08;;;;;;;8.02;98.01;101682.56;4932784;29;20064;-67
2022/09/19 01:23:46;;;;;;;12.93;2.40;;;;;;;8.03;98.06;101681.69;4930379;29;20040;-68
2022/09/19 01:27:18;;;;;;;14.98;2.35;;;;;;;8.04;97.94;101680.78;4941255;28;20115;-67
2022/09/19 01:29:51;;;;;;;16.25;2.80;;;;;;;8.01;98.10;101676.44;4925816;28;20056;-67
2022/09/19 01:32:28;;;;;;;14.57;2.40;;;;;;;8.04;98.09;101681.66;4927781;28;20063;-67
2022/09/19 01:35:06;;;;;;;15.32;2.75;;;;;;;8.03;97.85;101679.06;4926441;29;20555;-67
2022/09/19 01:37:43;;;;;;;21.58;2.53;;;;;;;8.03;98.04;101677.28;4947400;28;20536;-67
2022/09/19 01:40:13;;;;;;;22.88;2.90;;;;;;;8.03;98.10;101677.28;4932089;29;20040;-67
2022/09/19 01:42:55;;;;;;;16.02;2.35;;;;;;;8.05;97.89;101679.91;4928167;29;20051;-67
2022/09/19 01:45:36;;;;;;;21.30;2.90;;;;;;;8.02;98.26;101678.16;4927971;29;20714;-67
2022/09/19 01:48:26;;;;;;;20.30;2.50;;;;;;;8.00;98.34;101687.81;4927902;29;20168;-68
2022/09/19 01:51:31;;;;;;;12.38;2.08;;;;;;;7.98;98.30;101686.09;4931643;29;20425;-67
2022/09/19 01:54:30;;;;;;;17.90;2.13;;;;;;;7.97;98.58;101684.34;4929772;29;20040;-67
2022/09/19 01:57:16;;;;;;;15.63;2.42;;;;;;;7.95;98.66;101692.22;4939358;28;20100;-67
2022/09/19 02:00:12;;;;;;;11.57;2.83;;;;;;;7.95;98.80;101693.97;4924972;29;20051;-68
2022/09/19 02:02:47;;;;;;;10.67;2.30;;;;;;;7.92;99.17;101694.84;4931854;28;20100;-68
2022/09/19 02:05:35;;;;;;;19.92;2.72;;;;;;;7.88;99.04;101690.53;4931689;29;20071;-68
2022/09/19 02:08:19;;;;;;;22.63;2.63;;;;;;;7.92;99.82;101692.25;4939352;28;20044;-67
2022/09/19 02:11:09;;;;;;;15.32;3.20;;;;;;;7.97;100.00;101694.84;4932384;28;20067;-67
2022/09/19 02:13:46;;;;;;;17.63;2.05;;;;;;;8.01;99.82;101692.19;4930252;29;20043;-68
2022/09/19 02:16:47;;;;;;;18.65;2.88;;;;;;;8.09;99.30;101692.13;4926672;29;20056;-68
2022/09/19 02:19:36;;;;;;;11.75;2.35;;;;;;;8.12;99.36;101686.00;4939859;28;20133;-68
2022/09/19 02:22:12;;;;;;;19.77;2.50;;;;;;;8.15;99.38;101688.59;4938805;28;20052;-67
2022/09/19 02:24:45;;;;;;;13.68;2.22;;;;;;;8.19;99.35;101695.59;4924843;29;20622;-68
2022/09/19 02:27:28;;;;;;;18.40;2.28;;;;;;;8.20;99.43;101686.81;4925661;29;20144;-68
2022/09/19 02:30:05;;;;;;;18.80;2.67;;;;;;;8.20;99.07;101692.06;4924067;29;20507;-68
2022/09/19 02:32:47;;;;;;;13.80;2.38;;;;;;;8.20;98.96;101697.31;4928805;29;20143;-70
2022/09/19 02:35:20;;;;;;;18.40;2.55;;;;;;;8.21;98.65;101697.31;4931044;29;20052;-71
2022/09/19 02:38:01;;;;;;;14.68;3.03;;;;;;;8.24;98.22;101705.16;4931564;28;20041;-70
2022/09/19 02:40:36;;;;;;;14.63;2.25;;;;;;;8.24;98.32;101699.03;4930319;29;20080;-68
2022/09/19 02:43:33;;;;;;;19.83;2.95;;;;;;;8.24;98.64;101699.03;4930933;28;20052;-68
2022/09/19 02:46:11;;;;;;;15.70;2.22;;;;;;;8.21;98.67;101699.06;4929613;29;20054;-68
2022/09/19 02:49:02;;;;;;;14.25;2.40;;;;;;;8.23;98.44;101703.44;4931213;29;20096;-68
2022/09/19 02:51:39;;;;;;;14.18;2.05;;;;;;;8.23;98.38;101702.56;4929706;29;20055;-67
2022/09/19 02:54:28;;;;;;;16.77;2.63;;;;;;;8.20;98.34;101692.06;4922444;29;20546;-68
2022/09/19 02:57:01;;;;;;;18.92;2.75;;;;;;;8.20;98.28;101694.69;4930040;29;20044;-67
2022/09/19 02:59:35;;;;;;;15.27;2.47;;;;;;;8.21;98.10;101707.84;4925632;29;20521;-68
2022/09/19 03:02:15;;;;;;;19.25;3.13;;;;;;;8.23;98.34;101713.06;4926973;29;20627;-68
2022/09/19 03:04:53;;;;;;;14.48;2.63;;;;;;;8.21;98.36;101710.44;4930590;28;20064;-67
2022/09/19 03:07:30;;;;;;;11.52;2.00;;;;;;;8.24;97.83;101712.19;4933016;28;20055;-67
2022/09/19 03:10:16;;;;;;;13.10;2.25;;;;;;;8.25;97.82;101713.94;4927574;29;20048;-67
2022/09/19 03:12:58;;;;;;;9.57;2.20;;;;;;;8.26;97.63;101710.41;4927993;29;20096;-67
2022/09/19 03:15:56;;;;;;;12.40;2.63;;;;;;;8.26;97.48;101720.94;4929098;28;20080;-66
2022/09/19 03:18:37;;;;;;;20.48;2.30;;;;;;;8.28;97.10;101715.66;4926103;29;20048;-66
2022/09/19 03:21:10;;;;;;;9.90;1.95;;;;;;;8.27;97.15;101717.44;4928717;28;20052;-67
2022/09/19 03:23:46;;;;;;;15.80;2.33;;;;;;;8.26;97.44;101712.16;4929491;29;20123;-67
2022/09/19 03:26:30;;;;;;;12.07;2.40;;;;;;;8.28;97.56;101710.41;4929486;28;20584;-67
2022/09/19 03:28:59;;;;;;;14.95;1.90;;;;;;;8.34;97.25;101716.50;4913916;29;20139;-67
2022/09/19 03:31:34;;;;;;;17.63;2.25;;;;;;;8.47;97.25;101714.66;4921564;29;20127;-67
2022/09/19 03:34:06;;;;;;;13.27;1.85;;;;;;;8.57;97.39;101704.97;4940999;28;20128;-67
2022/09/19 03:36:33;;;;;;;15.23;2.33;;;;;;;8.67;96.96;101708.38;4928861;29;20040;-67
2022/09/19 03:39:02;;;;;;;16.05;2.55;;;;;;;8.77;96.55;101712.69;4929556;29;20044;-68
2022/09/19 03:41:38;;;;;;;10.32;2.30;;;;;;;8.90;95.59;101716.09;4924649;29;20044;-67
2022/09/19 03:44:09;;;;;;;13.52;2.22;;;;;;;8.93;95.98;101708.16;4924998;29;20071;-67
2022/09/19 03:46:38;;;;;;;12.25;1.80;;;;;;;8.95;95.56;101710.78;4930627;29;20056;-67
2022/09/19 03:49:05;;;;;;;12.73;1.88;;;;;;;8.99;95.16;101710.75;4933594;29;20044;-67
2022/09/19 03:51:33;;;;;;;8.82;2.00;;;;;;;9.00;94.52;101712.44;4927798;29;20103;-67
2022/09/19 03:54:04;;;;;;;14.75;2.10;;;;;;;9.01;94.57;101710.72;4932458;29;20041;-67
2022/09/19 03:56:37;;;;;;;;;;;;;;;9.02;93.82;101710.69;4933658;29;20100;-67
2022/09/19 03:59:07;;;;;;;8.02;1.80;;;;;;;9.08;93.52;101711.53;4932631;29;19943;-68
2022/09/19 04:01:37;;;;;;;12.88;1.90;;;;;;;9.12;93.12;101714.13;4921448;29;20054;-68
2022/09/19 04:04:05;;;;;;;18.67;2.42;;;;;;;9.13;93.57;101707.97;4933481;29;20048;-68
2022/09/19 04:06:36;;;;;;;9.65;1.88;;;;;;;9.14;93.26;101714.97;4929312;29;20131;-68
2022/09/19 04:09:04;;;;;;;17.10;2.63;;;;;;;9.13;93.47;101723.75;4916772;29;20791;-68
2022/09/19 04:11:31;;;;;;;11.32;1.83;;;;;;;9.14;93.15;101729.88;4923226;29;20048;-67
2022/09/19 04:14:00;;;;;;;11.20;2.13;;;;;;;9.13;93.04;101731.63;4942240;28;20112;-68
2022/09/19 04:16:27;;;;;;;13.32;2.20;;;;;;;9.11;92.81;101728.16;4929825;28;20041;-68
2022/09/19 04:18:56;;;;;;;8.50;1.85;;;;;;;9.13;92.22;101733.38;4930010;29;20052;-68
2022/09/19 04:21:47;;;;;;;12.60;2.17;;;;;;;9.11;92.61;101738.66;4948207;28;20040;-68
2022/09/19 04:24:42;;;;;;;14.13;2.05;;;;;;;9.08;92.21;101740.47;4933397;28;20064;-68
2022/09/19 04:27:33;;;;;;;11.60;1.98;;;;;;;9.02;92.42;101738.75;4928046;28;20052;-68
2022/09/19 04:30:01;;;;;;;12.82;2.30;;;;;;;8.99;92.57;101746.66;4930994;29;20041;-68
2022/09/19 04:32:30;;;;;;;8.75;1.98;;;;;;;8.96;92.63;101747.56;4943008;28;20048;-66
2022/09/19 04:34:59;;;;;;;15.38;2.30;;;;;;;8.93;92.95;101744.09;4943453;28;20047;-67
2022/09/19 04:37:26;;;;;;;15.32;2.42;;;;;;;8.89;93.68;101750.28;4924763;29;20049;-67
2022/09/19 04:40:05;;;;;;;12.00;2.28;;;;;;;8.84;93.94;101742.41;4930122;29;20164;-69
2022/09/19 04:42:34;;;;;;;27.17;2.88;;;;;;;8.79;94.31;101747.72;4929767;28;20487;-69
2022/09/19 04:45:04;;;;;;;15.07;2.63;;;;;;;8.78;94.65;101745.97;4938192;28;20048;-69
2022/09/19 04:47:48;;;;;;;19.05;2.50;;;;;;;8.79;95.36;101750.34;4930102;29;20508;-69
2022/09/19 04:50:17;;;;;;;13.77;2.70;;;;;;;8.81;95.71;101751.22;4928240;29;20043;-70
2022/09/19 04:52:57;;;;;;;16.38;2.42;;;;;;;8.85;96.04;101754.69;4928442;28;20051;-69
2022/09/19 04:55:27;;;;;;;14.27;2.65;;;;;;;8.89;96.03;101753.78;4945874;28;20456;-71
2022/09/19 04:57:57;;;;;;;11.02;2.63;;;;;;;8.93;95.79;101760.75;4930179;28;20048;-71
2022/09/19 05:00:39;;;;;;;15.38;2.40;;;;;;;8.97;95.51;101759.84;4925306;28;20056;-71
2022/09/19 05:03:16;;;;;;;18.85;2.30;;;;;;;9.03;95.07;101764.19;4924450;29;20432;-70
2022/09/19 05:05:50;;;;;;;17.58;2.20;;;;;;;9.09;94.28;101764.09;4931335;28;20044;-70
2022/09/19 05:08:29;;;;;;;14.23;2.17;;;;;;;9.14;94.63;101759.69;4935707;28;20048;-70
2022/09/19 05:11:21;;;;;;;15.23;2.22;;;;;;;9.19;93.75;101753.50;4925543;28;20657;-70
2022/09/19 05:13:49;;;;;;;10.63;2.40;;;;;;;9.24;92.20;101767.50;4923831;28;20048;-71
2022/09/19 05:16:21;;;;;;;13.70;2.00;;;;;;;9.30;92.46;101772.69;4939836;28;20055;-70
2022/09/19 05:18:56;;;;;;;12.50;1.95;;;;;;;9.36;92.62;101767.34;4940455;28;20927;-71
2022/09/19 05:21:23;;;;;;;17.40;1.83;;;;;;;9.42;92.54;101772.56;4940895;28;20056;-71
2022/09/19 05:23:51;;;;;;;16.23;2.25;;;;;;;9.47;92.88;101769.88;4929889;28;20048;-71
2022/09/19 05:26:18;;;;;;;11.20;2.00;;;;;;;9.55;92.97;101767.19;4934730;28;20157;-68
2022/09/19 05:28:50;;;;;;;10.60;1.67;;;;;;;9.62;92.67;101767.06;4939406;28;20558;-68
2022/09/19 05:31:22;;;;;;;13.90;2.65;;;;;;;9.72;92.31;101777.47;4931057;28;20048;-68
2022/09/19 05:34:13;;;;;;;10.32;1.60;;;;;;;9.78;91.51;101783.56;4921411;28;20055;-68
2022/09/19 05:36:42;;;;;;;14.07;1.88;;;;;;;9.83;91.54;101778.22;4930170;28;20132;-68
2022/09/19 05:39:18;;;;;;;16.38;2.05;;;;;;;9.87;90.53;101790.47;4925321;28;20044;-68
2022/09/19 05:41:54;;;;;;;12.07;2.28;;;;;;;9.84;91.37;101794.91;4926253;28;20044;-68
2022/09/19 05:44:23;;;;;;;16.23;2.30;;;;;;;9.85;91.23;101796.66;4954689;28;20055;-68
2022/09/19 05:46:54;;;;;;;11.70;1.75;;;;;;;9.86;91.26;101794.00;4923098;28;20053;-68
2022/09/19 05:49:22;;;;;;;15.15;2.20;;;;;;;9.89;91.47;101793.09;4925852;28;20051;-67
2022/09/19 05:51:55;;;;;;;16.73;2.80;;;;;;;9.92;90.75;101803.59;4936081;28;20126;-68
2022/09/19 05:54:24;;;;;;;11.40;2.20;;;;;;;9.91;91.20;101804.47;4928289;28;21719;-67
2022/09/19 05:57:10;;;;;;;14.32;1.90;;;;;;;9.90;91.19;101800.09;4931992;28;20052;-67
2022/09/19 05:59:38;;;;;;;12.50;1.75;;;;;;;9.91;91.35;101807.13;4925825;28;20810;-67
2022/09/19 06:02:10;;;;;;;10.35;1.90;;;;;;;9.92;91.00;101809.72;4923874;29;20055;-67
2022/09/19 06:04:46;;;;;;;17.70;2.20;;;;;;;9.97;90.82;101806.19;4947083;28;20439;-67
2022/09/19 06:07:15;;;;;;;14.25;2.30;;;;;;;10.01;91.11;101816.66;4932320;28;20067;-67
2022/09/19 06:09:44;;;;;;;17.63;2.22;;;;;;;10.06;90.82;101816.59;4932251;28;20100;-67
2022/09/19 06:12:13;;;;;;;8.90;2.28;;;;;;;10.12;90.96;101824.44;4945306;28;20051;-67
2022/09/19 06:14:40;;;;;;;16.02;2.00;;;;;;;10.18;90.17;101826.97;4932421;28;20044;-67
2022/09/19 06:17:11;;;;;;;11.57;2.20;;;;;;;10.28;89.96;101822.44;4949519;28;20044;-67
2022/09/19 06:19:57;;;;;;;12.10;2.28;;;;;;;10.40;89.84;101824.94;4932965;28;20154;-67
2022/09/19 06:22:34;;;;;;;14.60;2.30;;;;;;;10.53;89.17;101830.91;4947386;28;20127;-67
2022/09/19 06:25:03;;;;;;;14.13;2.03;;;;;;;10.67;89.03;101836.03;4932289;29;20542;-68
2022/09/19 06:27:31;;;;;;;16.30;2.30;;;;;;;10.76;89.17;101832.34;4946742;28;20047;-67
2022/09/19 06:29:59;;;;;;;10.55;2.58;;;;;;;10.82;89.03;101828.75;4937888;28;20531;-66
2022/09/19 06:32:39;;;;;;;11.13;1.75;;;;;;;10.90;88.47;101837.41;4945628;28;20044;-67
2022/09/19 06:35:12;;;;;;;19.73;2.10;;;;;;;10.93;87.97;101842.66;4932638;28;20071;-67
2022/09/19 06:37:41;;;;;;;15.98;2.45;;;;;;;10.97;87.69;101833.81;4932886;29;20059;-68
2022/09/19 06:40:10;;;;;;;12.63;2.13;;;;;;;11.01;87.54;101840.75;4932188;29;20048;-68
2022/09/19 06:43:04;;;;;;;11.18;2.08;;;;;;;11.03;88.87;101838.97;4927390;29;20435;-67
2022/09/19 06:45:52;;;;;;;12.07;2.40;;;;;;;11.09;89.50;101851.19;4933414;29;20036;-67
2022/09/19 06:48:38;;;;;;;8.35;1.90;;;;;;;11.12;88.91;101852.91;4932457;29;20854;-68
2022/09/19 06:51:29;;;;;;;14.68;2.20;;;;;;;11.09;88.72;101852.97;4924856;28;20072;-68
2022/09/19 06:53:57;;;;;;;12.10;2.15;;;;;;;11.06;88.47;101853.88;4948105;28;20048;-68
2022/09/19 06:56:24;;;;;;;10.13;1.90;;;;;;;11.03;89.10;101859.22;4930248;29;20048;-68
2022/09/19 06:58:52;;;;;;;15.25;2.00;;;;;;;11.08;88.42;101864.41;4927659;28;20131;-67
2022/09/19 07:01:19;;;;;;;12.40;2.20;;;;;;;11.08;87.99;101862.63;4931102;28;20496;-68
2022/09/19 07:03:47;;;;;;;16.85;2.45;;;;;;;11.09;88.36;101867.03;4929978;29;20525;-68
2022/09/19 07:06:19;;;;;;;10.10;2.15;;;;;;;11.12;87.83;101866.97;4924961;28;20131;-67
2022/09/19 07:09:06;;;;;;;14.10;2.08;;;;;;;11.11;87.37;101877.53;4924684;28;20131;-68
2022/09/19 07:11:35;;;;;;;12.25;2.42;;;;;;;11.10;87.30;101870.53;4931604;29;20036;-67
2022/09/19 07:14:04;;;;;;;12.93;1.92;;;;;;;11.09;87.00;101874.94;4946998;28;20051;-67
2022/09/19 07:16:32;;;;;;;10.30;2.08;;;;;;;11.10;87.69;101875.78;4947231;28;20055;-67
2022/09/19 07:19:02;;;;;;;15.10;2.30;;;;;;;11.23;86.81;101884.41;4948103;28;20150;-67
2022/09/19 07:21:54;;;;;;;23.27;2.42;;;;;;;11.37;86.17;101886.81;4929165;29;20105;-68
2022/09/19 07:24:51;;;;;;;13.52;1.63;;;;;;;11.53;85.95;101885.66;4935891;28;20551;-67
2022/09/19 07:27:30;;;;;;;7.88;1.80;;;;;;;11.70;85.17;101882.69;4951733;28;20941;-68
2022/09/19 07:29:57;;;;;;;10.27;2.53;;;;;;;11.85;84.75;101888.63;4952058;28;20048;-67
2022/09/19 07:32:24;;;;;;;12.73;2.00;;;;;;;12.01;84.41;101887.44;4951322;28;20048;-67
2022/09/19 07:34:51;;;;;;;11.45;2.40;;;;;;;12.19;84.37;101901.19;4951564;28;20048;-68
2022/09/19 07:37:18;;;;;;;9.63;1.88;;;;;;;12.31;83.44;101895.66;4934537;29;20078;-67
2022/09/19 07:39:52;;;;;;;17.48;2.65;;;;;;;12.42;82.93;101892.75;4941355;28;20393;-67
2022/09/19 07:42:47;;;;;;;12.13;1.90;;;;;;;12.50;82.33;101893.50;4933592;29;20509;-68
2022/09/19 07:45:36;;;;;;;13.13;2.40;;;;;;;12.58;82.76;101899.50;4924393;29;20476;-67
2022/09/19 07:48:24;;;;;;;9.73;2.33;;;;;;;12.64;82.47;101902.88;4923600;28;20066;-67
2022/09/19 07:51:04;;;;;;;13.38;1.80;;;;;;;12.72;83.23;101891.25;4935370;29;20847;-68
2022/09/19 07:53:36;;;;;;;12.60;2.20;;;;;;;12.81;82.34;101903.41;4942726;28;20048;-67
2022/09/19 07:56:05;;;;;;;10.40;2.13;;;;;;;12.92;82.21;101903.16;4934691;29;20040;-68
2022/09/19 07:58:32;;;;;;;13.75;2.45;;;;;;;13.02;82.27;101911.75;4950293;28;20048;-68
2022/09/19 08:01:02;;;;;;;12.20;2.78;;;;;;;13.12;82.41;101912.38;4934932;29;20044;-68
2022/09/19 08:03:49;;;;;;;8.95;2.20;;;;;;;13.26;82.00;101926.19;4935417;29;20055;-68
2022/09/19 08:06:24;;;;;;;23.45;3.67;;;;;;;13.36;82.86;101917.09;4939158;28;20050;-68
2022/09/19 08:08:54;;;;;;;13.32;2.67;;;;;;;13.49;82.10;101919.44;4949404;28;20056;-68
2022/09/19 08:11:47;;;;;;;10.85;2.03;;;;;;;13.68;81.43;101926.94;4926114;28;20588;-67
2022/09/19 08:14:15;;;;;;;13.20;2.10;;;;;;;13.84;80.97;101917.66;4933393;28;20040;-68
2022/09/19 08:16:43;;;;;;;7.07;1.52;;;;;;;14.03;78.98;101917.16;4943819;28;20044;-68
2022/09/19 08:19:11;;;;;;;8.43;1.58;;;;;;;14.01;78.95;101922.53;4934766;29;20152;-67
2022/09/19 08:21:39;;;;;;;15.77;2.05;;;;;;;14.17;77.91;101924.72;4926244;29;20044;-68
2022/09/19 08:24:07;;;;;;;10.93;2.13;;;;;;;14.26;76.15;101933.31;4933851;28;20116;-68
2022/09/19 08:26:35;;;;;;;15.55;1.95;;;;;;;14.40;76.15;101922.28;4931275;28;20507;-68
2022/09/19 08:29:02;;;;;;;10.85;2.10;;;;;;;14.45;76.15;101923.00;4934359;29;20112;-68
2022/09/19 08:31:36;;;;;;;7.60;1.20;;;;;;;14.53;75.65;101935.22;4950707;28;20610;-68
2022/09/19 08:34:04;;;;;;;6.97;1.35;;;;;;;14.64;75.15;101932.22;4949828;28;20842;-68
2022/09/19 08:36:34;;;;;;;10.73;1.83;;;;;;;14.78;75.29;101932.72;4945074;28;20488;-68
2022/09/19 08:39:01;;;;;;;9.73;1.63;;;;;;;15.04;74.85;101939.88;4933560;29;20104;-68
2022/09/19 08:42:05;;;;;;;9.23;1.20;;;;;;;15.22;73.94;101935.75;4920701;29;20060;-68
2022/09/19 08:44:57;;;;;;;6.63;1.45;;;;;;;15.16;73.54;101938.59;4931279;28;20462;-68
2022/09/19 08:47:32;;;;;;;10.75;1.30;;;;;;;15.13;72.82;101932.53;4916428;29;20036;-68
2022/09/19 08:50:24;;;;;;;8.70;1.30;;;;;;;15.15;73.09;101941.31;4930303;29;20052;-68
2022/09/19 08:52:58;;;;;;;10.38;1.33;;;;;;;15.11;73.46;101937.88;4933160;29;20055;-68
2022/09/19 08:55:34;;;;;;;29.02;3.45;;;;;;;15.29;73.25;101941.72;4930368;28;20040;-68
2022/09/19 08:58:18;;;;;;;12.15;1.80;;;;;;;15.36;73.62;101943.25;4920305;29;20052;-67
2022/09/19 09:01:09;;;;;;;7.10;1.65;;;;;;;15.46;71.46;101948.28;4913846;29;20096;-68
2022/09/19 09:04:32;;;;;;;10.48;1.77;;;;;;;15.59;70.15;101936.31;4926055;29;20049;-68
2022/09/19 09:07:49;;;;;;;12.77;1.55;;;;;;;15.69;69.72;101939.53;4914933;29;20044;-68
2022/09/19 09:11:23;;;;;;;18.50;2.25;;;;;;;15.78;71.16;101936.56;4930555;28;20044;-68
2022/09/19 09:14:19;;;;;;;7.60;1.35;;;;;;;15.78;70.51;101940.97;4907991;29;20056;-68
2022/09/19 09:17:14;;;;;;;12.52;1.88;;;;;;;15.66;70.91;101937.84;4933174;29;20459;-68
2022/09/19 09:20:07;;;;;;;11.18;1.38;;;;;;;15.90;70.30;101942.41;4914371;29;20108;-68
2022/09/19 09:22:45;;;;;;;5.82;1.00;;;;;;;15.91;67.96;101931.69;4914736;29;20052;-68
2022/09/19 09:25:42;;;;;;;7.75;1.00;;;;;;;15.88;68.14;101926.47;4928934;29;20048;-67
2022/09/19 09:28:35;;;;;;;10.35;1.17;;;;;;;15.88;69.27;101925.63;4945342;28;20044;-67
2022/09/19 09:31:29;;;;;;;6.50;1.00;;;;;;;15.97;68.88;101936.78;4922569;29;20173;-67
2022/09/19 09:34:29;;;;;;;6.57;0.90;;;;;;;16.25;66.47;101926.94;4932164;29;20048;-67
2022/09/19 09:37:05;;;;;;;8.98;1.17;;;;;;;16.43;65.81;101925.41;4933603;28;20048;-67
2022/09/19 09:40:00;;;;;;;6.35;1.00;;;;;;;16.41;63.92;101920.13;4944854;28;20585;-67
2022/09/19 09:43:02;;;;;;;7.43;1.00;;;;;;;16.25;65.22;101929.59;4914189;29;20044;-67
2022/09/19 09:45:44;;;;;;;5.38;0.73;;;;;;;15.99;67.47;101928.78;4933249;28;20524;-67
2022/09/19 09:48:26;;;;;;;9.45;1.92;;;;;;;15.88;68.65;101933.59;4932936;29;20108;-67
2022/09/19 09:51:00;;;;;;;6.57;0.80;;;;;;;15.91;68.36;101936.16;4929567;29;20053;-67
2022/09/19 09:57:34;;;;;;;9.73;1.65;;;;;;;16.19;68.95;101930.69;4944373;28;20100;-67
2022/09/19 10:03:38;;;;;;;9.02;1.40;;;;;;;16.62;67.49;101920.25;4928188;29;20568;-67
2022/09/19 10:07:10;;;;;;;10.23;1.30;;;;;;;17.02;66.44;101923.16;4929239;28;20135;-67
2022/09/19 10:09:58;;;;;;;6.28;1.05;;;;;;;17.41;64.16;101917.09;4936122;28;20132;-67
2022/09/19 10:13:07;;;;;;;10.43;1.55;;;;;;;17.66;61.12;101924.91;4923557;29;20052;-67
2022/09/19 10:15:39;;;;;;;8.88;1.48;;;;;;;17.58;60.51;101923.53;4931972;29;20044;-67
2022/09/19 10:18:15;;;;;;;5.53;0.90;;;;;;;17.35;62.19;101952.88;4934504;28;20084;-66
2022/09/19 10:20:53;;;;;;;3.60;0.60;;;;;;;16.29;63.78;101976.47;4943830;28;20431;-66
2022/09/19 10:23:33;;;;;;;7.40;0.77;;;;;;;15.08;69.07;101980.47;4929223;29;20574;-66
2022/09/19 10:26:15;;;;;;;5.38;0.50;;;;;;;14.14;71.15;101997.28;4940311;28;20036;-67
2022/09/19 10:28:54;;;;;;;5.82;0.50;;;;;;;13.34;72.60;101994.81;4931997;29;20531;-66
2022/09/19 10:31:57;;;;;;;1.45;0.38;;;;;;;12.62;76.21;101984.03;4925465;29;20985;-66
2022/09/19 10:34:50;;;;;;;3.85;0.30;;;;;;;12.20;79.29;101971.66;4933666;28;20514;-66
2022/09/19 10:37:27;;;;;;;4.50;0.55;;;;;;;12.08;81.27;101971.00;4931991;29;20947;-65
2022/09/19 10:40:01;;;;;;;10.00;0.70;;;;;;;12.14;82.72;101969.16;4947350;28;20124;-65
2022/09/19 10:42:41;;;;;;;6.50;0.60;;;;;;;12.33;83.51;101970.53;4932637;29;20044;-65
2022/09/19 10:45:37;;;;;;;6.18;0.80;;;;;;;12.48;84.10;101966.72;4931607;29;20040;-65
2022/09/19 10:48:18;;;;;;;9.30;0.88;;;;;;;12.64;84.92;101980.50;4948415;28;20107;-65
2022/09/19 10:50:48;;;;;;;3.00;0.85;;;;;;;12.83;85.94;101966.88;4948525;28;20044;-64
2022/09/19 10:53:24;;;;;;;5.75;1.02;;;;;;;12.87;86.24;101974.69;4947747;28;20533;-65
2022/09/19 10:56:02;;;;;;;7.95;1.17;;;;;;;12.99;86.56;101976.19;4930160;29;20048;-65
2022/09/19 10:58:39;;;;;;;8.02;1.30;;;;;;;13.10;87.47;101975.09;4930617;29;20124;-65
2022/09/19 11:01:30;;;;;;;7.10;1.05;;;;;;;13.28;86.87;101972.00;4934388;28;20051;-65
2022/09/19 11:04:23;;;;;;;7.15;1.35;;;;;;;13.46;87.19;101977.81;4927310;29;20040;-66
2022/09/19 11:07:02;;;;;;;7.15;1.40;;;;;;;13.73;85.92;101970.97;4912983;29;20487;-66
2022/09/19 11:09:37;;;;;;;7.47;1.48;;;;;;;13.79;85.97;101973.44;4922315;29;20044;-68
2022/09/19 11:12:15;;;;;;;5.75;1.10;;;;;;;13.99;82.13;101972.06;4931293;29;20052;-66
2022/09/19 11:14:46;;;;;;;4.78;0.98;;;;;;;14.19;81.65;101974.19;4931716;28;20067;-68
2022/09/19 11:18:03;;;;;;;10.52;1.23;;;;;;;14.54;81.30;101968.78;4930561;29;20036;-65
2022/09/19 11:21:07;;;;;;;9.02;1.38;;;;;;;14.91;80.68;101965.91;4923171;29;20629;-68
2022/09/19 11:24:00;;;;;;;9.50;1.25;;;;;;;15.00;81.30;101962.13;4923073;29;20836;-66
2022/09/19 11:26:52;;;;;;;5.03;1.05;;;;;;;14.94;76.97;101966.75;4932129;29;20356;-66
2022/09/19 11:30:00;;;;;;;4.20;0.82;;;;;;;14.70;75.24;101974.56;4932731;28;20051;-66
2022/09/19 11:32:39;;;;;;;8.52;1.20;;;;;;;14.44;76.82;101977.00;4918459;29;20078;-66
2022/09/19 11:35:57;;;;;;;6.25;0.88;;;;;;;14.28;77.90;101968.63;4928349;29;20504;-66
2022/09/19 11:38:28;;;;;;;5.45;1.00;;;;;;;14.34;77.75;101974.66;4936902;28;20048;-67
2022/09/19 11:41:44;;;;;;;3.85;0.82;;;;;;;14.74;77.09;101971.75;4930948;29;20051;-67
2022/09/19 11:44:43;;;;;;;7.10;1.50;;;;;;;14.77;76.36;101989.38;4925316;29;20119;-67
2022/09/19 11:47:52;;;;;;;8.07;1.38;;;;;;;14.48;78.78;101992.81;4912957;29;20044;-69
2022/09/19 11:50:43;;;;;;;4.20;0.80;;;;;;;14.34;80.51;101990.56;4878317;29;20049;-67
2022/09/19 11:53:28;;;;;;;7.63;1.17;;;;;;;14.26;81.03;101989.00;4920329;29;20064;-67
2022/09/19 11:56:55;;;;;;;3.75;0.60;;;;;;;14.09;79.57;102001.84;4929859;29;20512;-67
2022/09/19 11:59:43;;;;;;;4.97;0.85;;;;;;;13.80;78.48;102008.75;4906366;29;20067;-67
2022/09/19 12:02:58;;;;;;;4.20;0.90;;;;;;;13.54;77.67;102017.34;4932731;29;20112;-67
2022/09/19 12:05:53;;;;;;;2.60;0.68;;;;;;;13.00;78.54;102000.91;4915934;29;20051;-67
2022/09/19 12:08:45;;;;;;;6.20;0.90;;;;;;;12.52;81.47;101996.59;4928707;29;20072;-67
2022/09/19 12:11:21;;;;;;;4.10;0.73;;;;;;;12.21;82.03;101986.63;4926888;29;20044;-66
2022/09/19 12:14:01;;;;;;;3.97;0.85;;;;;;;12.03;83.56;101988.72;4931351;28;20040;-67
2022/09/19 12:16:46;;;;;;;4.55;0.80;;;;;;;12.01;84.10;101984.34;4934365;28;20575;-66
2022/09/19 12:19:27;;;;;;;4.05;0.70;;;;;;;12.07;86.13;101976.31;4923646;28;20048;-67
2022/09/19 12:22:06;;;;;;;5.00;0.68;;;;;;;12.16;84.88;101976.13;4919265;28;20037;-66
2022/09/19 12:24:54;;;;;;;4.85;1.30;;;;;;;12.22;85.90;101977.78;4948523;28;21033;-66
2022/09/19 12:27:43;;;;;;;5.78;1.00;;;;;;;12.30;85.94;101981.16;4932982;28;20048;-66
2022/09/19 12:30:18;;;;;;;2.80;0.60;;;;;;;12.37;86.88;101984.56;4946975;28;20092;-67
2022/09/19 12:33:06;;;;;;;5.88;0.95;;;;;;;12.51;86.07;101976.34;4933518;29;20079;-68